sensor_id;sensor_type;location;lat;lon;timestamp;pressure;altitude;pressure_sealevel;temperature;humidity
37298;BME280;30517;51.932;4.278;2022-11-18T00:02:01;99350.97;;;10.84;74.19
37298;BME280;30517;51.932;4.278;2022-11-18T00:04:42;99391.75;;;11.03;74.38
37298;BME280;30517;51.932;4.278;2022-11-18T00:07:23;99394.38;;;11.05;74.49
37298;BME280;30517;51.932;4.278;2022-11-18T00:10:04;99394.31;;;11.06;73.97
37298;BME280;30517;51.932;4.278;2022-11-18T00:12:44;99384.13;;;10.93;74.89
37298;BME280;30517;51.932;4.278;2022-11-18T00:15:44;99400.53;;;11.04;74.45
37298;BME280;30517;51.932;4.278;2022-11-18T00:18:26;99374.50;;;10.92;73.95
37298;BME280;30517;51.932;4.278;2022-11-18T00:21:09;99411.06;;;11.05;74.01
37298;BME280;30517;51.932;4.278;2022-11-18T00:23:50;99415.31;;;11.10;74.16
37298;BME280;30517;51.932;4.278;2022-11-18T00:26:30;99417.31;;;11.01;74.02
37298;BME280;30517;51.932;4.278;2022-11-18T00:29:11;99411.22;;;10.99;74.72
37298;BME280;30517;51.932;4.278;2022-11-18T00:31:55;99401.72;;;10.94;74.59
37298;BME280;30517;51.932;4.278;2022-11-18T00:34:36;99412.28;;;10.92;74.90
37298;BME280;30517;51.932;4.278;2022-11-18T00:37:17;99394.03;;;10.84;74.56
37298;BME280;30517;51.932;4.278;2022-11-18T00:39:58;99436.69;;;11.00;74.17
37298;BME280;30517;51.932;4.278;2022-11-18T00:42:39;99431.44;;;10.99;73.92
37298;BME280;30517;51.932;4.278;2022-11-18T00:45:32;99436.81;;;10.96;74.35
37298;BME280;30517;51.932;4.278;2022-11-18T00:48:13;99444.63;;;11.00;74.02
37298;BME280;30517;51.932;4.278;2022-11-18T00:50:56;99408.25;;;10.77;74.33
37298;BME280;30517;51.932;4.278;2022-11-18T00:53:37;99438.75;;;10.89;74.50
37298;BME280;30517;51.932;4.278;2022-11-18T00:56:18;99436.28;;;10.83;74.25
37298;BME280;30517;51.932;4.278;2022-11-18T00:58:59;99464.81;;;11.01;73.89
37298;BME280;30517;51.932;4.278;2022-11-18T01:01:40;99462.41;;;10.92;74.36
37298;BME280;30517;51.932;4.278;2022-11-18T01:04:21;99434.81;;;10.71;73.96
37298;BME280;30517;51.932;4.278;2022-11-18T01:07:02;99428.75;;;10.68;74.09
37298;BME280;30517;51.932;4.278;2022-11-18T01:09:43;99447.81;;;10.79;74.30
37298;BME280;30517;51.932;4.278;2022-11-18T01:12:23;99444.50;;;10.71;74.57
37298;BME280;30517;51.932;4.278;2022-11-18T01:15:23;99440.81;;;10.78;74.08
37298;BME280;30517;51.932;4.278;2022-11-18T01:18:04;99480.22;;;10.82;74.03
37298;BME280;30517;51.932;4.278;2022-11-18T01:20:45;99487.06;;;10.91;74.64
37298;BME280;30517;51.932;4.278;2022-11-18T01:23:26;99494.31;;;10.83;74.81
37298;BME280;30517;51.932;4.278;2022-11-18T01:26:09;99497.91;;;10.79;74.53
37298;BME280;30517;51.932;4.278;2022-11-18T01:28:54;99504.88;;;10.83;74.31
37298;BME280;30517;51.932;4.278;2022-11-18T01:31:36;99486.72;;;10.69;74.71
37298;BME280;30517;51.932;4.278;2022-11-18T01:34:17;99478.09;;;10.62;74.10
37298;BME280;30517;51.932;4.278;2022-11-18T01:36:58;99505.94;;;10.74;74.36
37298;BME280;30517;51.932;4.278;2022-11-18T01:39:39;99520.75;;;10.80;74.49
37298;BME280;30517;51.932;4.278;2022-11-18T01:42:20;99498.22;;;10.67;74.03
37298;BME280;30517;51.932;4.278;2022-11-18T01:51:05;99529.34;;;10.88;74.31
37298;BME280;30517;51.932;4.278;2022-11-18T01:53:52;99529.56;;;10.79;74.23
37298;BME280;30517;51.932;4.278;2022-11-18T01:56:42;99532.22;;;10.77;74.52
37298;BME280;30517;51.932;4.278;2022-11-18T01:59:26;99446.38;;;10.30;74.38
37298;BME280;30517;51.932;4.278;2022-11-18T02:02:11;99540.03;;;10.82;74.09
37298;BME280;30517;51.932;4.278;2022-11-18T02:04:55;99533.91;;;10.81;74.44
37298;BME280;30517;51.932;4.278;2022-11-18T02:07:39;99537.72;;;10.70;74.68
37298;BME280;30517;51.932;4.278;2022-11-18T02:10:23;99544.59;;;10.75;74.09
37298;BME280;30517;51.932;4.278;2022-11-18T02:13:04;99543.78;;;10.73;74.37
37298;BME280;30517;51.932;4.278;2022-11-18T02:15:55;99552.69;;;10.68;74.48
37298;BME280;30517;51.932;4.278;2022-11-18T02:18:51;99554.31;;;10.73;74.27
37298;BME280;30517;51.932;4.278;2022-11-18T02:22:14;99541.22;;;10.69;74.00
37298;BME280;30517;51.932;4.278;2022-11-18T02:25:06;99565.72;;;10.74;73.92
37298;BME280;30517;51.932;4.278;2022-11-18T02:28:16;99564.03;;;10.71;74.30
37298;BME280;30517;51.932;4.278;2022-11-18T02:31:10;99558.75;;;10.71;74.05
37298;BME280;30517;51.932;4.278;2022-11-18T02:34:00;99571.09;;;10.69;74.10
37298;BME280;30517;51.932;4.278;2022-11-18T02:36:52;99570.16;;;10.72;73.96
37298;BME280;30517;51.932;4.278;2022-11-18T02:39:44;99575.50;;;10.69;74.20
37298;BME280;30517;51.932;4.278;2022-11-18T02:42:29;99584.38;;;10.66;74.32
37298;BME280;30517;51.932;4.278;2022-11-18T02:45:16;99559.31;;;10.47;74.60
37298;BME280;30517;51.932;4.278;2022-11-18T02:48:02;99553.25;;;10.43;74.78
37298;BME280;30517;51.932;4.278;2022-11-18T02:50:47;99577.34;;;10.67;74.26
37298;BME280;30517;51.932;4.278;2022-11-18T02:53:30;99584.34;;;10.68;74.00
37298;BME280;30517;51.932;4.278;2022-11-18T02:56:14;99587.13;;;10.61;74.50
37298;BME280;30517;51.932;4.278;2022-11-18T02:58:55;99588.81;;;10.64;74.28
37298;BME280;30517;51.932;4.278;2022-11-18T03:01:37;99562.00;;;10.45;74.50
37298;BME280;30517;51.932;4.278;2022-11-18T03:04:18;99553.41;;;10.37;74.33
37298;BME280;30517;51.932;4.278;2022-11-18T03:07:21;99590.56;;;10.65;73.93
37298;BME280;30517;51.932;4.278;2022-11-18T03:10:05;99580.97;;;10.61;74.26
37298;BME280;30517;51.932;4.278;2022-11-18T03:12:54;99595.03;;;10.61;74.16
37298;BME280;30517;51.932;4.278;2022-11-18T03:16:00;99592.25;;;10.68;73.75
37298;BME280;30517;51.932;4.278;2022-11-18T03:19:01;99598.72;;;10.53;74.23
37298;BME280;30517;51.932;4.278;2022-11-18T03:21:51;99604.69;;;10.61;74.46
37298;BME280;30517;51.932;4.278;2022-11-18T03:24:40;99595.28;;;10.49;74.44
37298;BME280;30517;51.932;4.278;2022-11-18T03:27:31;99604.91;;;10.52;74.52
37298;BME280;30517;51.932;4.278;2022-11-18T03:30:17;99609.28;;;10.53;74.42
37298;BME280;30517;51.932;4.278;2022-11-18T03:33:02;99592.66;;;10.49;74.18
37298;BME280;30517;51.932;4.278;2022-11-18T03:35:46;99616.25;;;10.55;74.50
37298;BME280;30517;51.932;4.278;2022-11-18T03:38:33;99603.22;;;10.49;74.13
37298;BME280;30517;51.932;4.278;2022-11-18T03:41:18;99600.72;;;10.43;74.37
37298;BME280;30517;51.932;4.278;2022-11-18T03:44:07;99596.47;;;10.36;74.65
37298;BME280;30517;51.932;4.278;2022-11-18T03:47:11;99616.44;;;10.48;74.59
37298;BME280;30517;51.932;4.278;2022-11-18T03:50:01;99583.53;;;10.24;74.46
37298;BME280;30517;51.932;4.278;2022-11-18T03:52:44;99631.28;;;10.52;74.44
37298;BME280;30517;51.932;4.278;2022-11-18T03:55:29;99596.63;;;10.27;74.12
37298;BME280;30517;51.932;4.278;2022-11-18T03:58:27;99635.63;;;10.54;74.44
37298;BME280;30517;51.932;4.278;2022-11-18T04:01:36;99638.28;;;10.53;74.52
37298;BME280;30517;51.932;4.278;2022-11-18T04:04:20;99637.56;;;10.45;74.35
37298;BME280;30517;51.932;4.278;2022-11-18T04:07:18;99645.47;;;10.46;74.85
37298;BME280;30517;51.932;4.278;2022-11-18T04:10:07;99659.41;;;10.51;73.88
37298;BME280;30517;51.932;4.278;2022-11-18T04:12:53;99653.22;;;10.54;74.35
37298;BME280;30517;51.932;4.278;2022-11-18T04:15:40;99657.63;;;10.53;74.18
37298;BME280;30517;51.932;4.278;2022-11-18T04:18:21;99635.91;;;10.40;74.29
37298;BME280;30517;51.932;4.278;2022-11-18T04:21:01;99648.03;;;10.49;74.06
37298;BME280;30517;51.932;4.278;2022-11-18T04:23:42;99672.66;;;10.48;74.51
37298;BME280;30517;51.932;4.278;2022-11-18T04:26:23;99666.56;;;10.45;74.40
37298;BME280;30517;51.932;4.278;2022-11-18T04:29:04;99676.22;;;10.46;74.40
37298;BME280;30517;51.932;4.278;2022-11-18T04:31:45;99685.72;;;10.53;74.17
37298;BME280;30517;51.932;4.278;2022-11-18T04:34:26;99681.34;;;10.53;74.06
37298;BME280;30517;51.932;4.278;2022-11-18T04:37:07;99670.19;;;10.40;74.36
37298;BME280;30517;51.932;4.278;2022-11-18T04:39:48;99674.59;;;10.40;74.13
37298;BME280;30517;51.932;4.278;2022-11-18T04:42:29;99683.28;;;10.44;74.20
37298;BME280;30517;51.932;4.278;2022-11-18T04:45:10;99694.75;;;10.41;74.64
37298;BME280;30517;51.932;4.278;2022-11-18T04:47:51;99684.41;;;10.32;74.60
37298;BME280;30517;51.932;4.278;2022-11-18T04:50:32;99703.44;;;10.48;74.20
37298;BME280;30517;51.932;4.278;2022-11-18T04:53:12;99677.44;;;10.29;74.34
37298;BME280;30517;51.932;4.278;2022-11-18T04:55:53;99674.06;;;10.21;73.92
37298;BME280;30517;51.932;4.278;2022-11-18T04:58:34;99713.22;;;10.41;74.07
37298;BME280;30517;51.932;4.278;2022-11-18T05:01:14;99719.28;;;10.46;74.33
37298;BME280;30517;51.932;4.278;2022-11-18T05:03:56;99728.19;;;10.39;74.73
37298;BME280;30517;51.932;4.278;2022-11-18T05:06:36;99699.38;;;10.30;74.33
37298;BME280;30517;51.932;4.278;2022-11-18T05:09:18;99714.28;;;10.32;74.71
37298;BME280;30517;51.932;4.278;2022-11-18T05:11:59;99722.09;;;10.37;74.30
37298;BME280;30517;51.932;4.278;2022-11-18T05:14:59;99727.25;;;10.41;74.29
37298;BME280;30517;51.932;4.278;2022-11-18T05:17:40;99670.91;;;10.01;74.32
37298;BME280;30517;51.932;4.278;2022-11-18T05:20:21;99723.13;;;10.27;74.00
37298;BME280;30517;51.932;4.278;2022-11-18T05:23:02;99723.03;;;10.33;74.40
37298;BME280;30517;51.932;4.278;2022-11-18T05:25:43;99744.91;;;10.38;74.34
37298;BME280;30517;51.932;4.278;2022-11-18T05:28:23;99751.91;;;10.39;74.07
37298;BME280;30517;51.932;4.278;2022-11-18T05:31:13;99753.66;;;10.40;74.33
37298;BME280;30517;51.932;4.278;2022-11-18T05:33:54;99748.50;;;10.34;74.51
37298;BME280;30517;51.932;4.278;2022-11-18T05:36:35;99752.81;;;10.38;74.39
37298;BME280;30517;51.932;4.278;2022-11-18T05:39:16;99754.72;;;10.30;74.74
37298;BME280;30517;51.932;4.278;2022-11-18T05:41:57;99749.50;;;10.25;74.36
37298;BME280;30517;51.932;4.278;2022-11-18T05:44:56;99750.00;;;10.47;73.33
37298;BME280;30517;51.932;4.278;2022-11-18T05:48:48;99769.88;;;10.67;72.31
37298;BME280;30517;51.932;4.278;2022-11-18T05:51:28;99739.38;;;10.52;71.72
37298;BME280;30517;51.932;4.278;2022-11-18T05:54:10;99767.50;;;10.51;72.45
37298;BME280;30517;51.932;4.278;2022-11-18T05:56:53;99772.13;;;10.38;73.13
37298;BME280;30517;51.932;4.278;2022-11-18T05:59:34;99769.50;;;10.40;72.72
37298;BME280;30517;51.932;4.278;2022-11-18T06:02:19;99768.75;;;10.32;72.96
37298;BME280;30517;51.932;4.278;2022-11-18T06:05:03;99773.91;;;10.38;73.17
37298;BME280;30517;51.932;4.278;2022-11-18T06:07:44;99772.25;;;10.32;73.38
37298;BME280;30517;51.932;4.278;2022-11-18T06:10:30;99778.56;;;10.22;73.71
37298;BME280;30517;51.932;4.278;2022-11-18T06:13:17;99798.63;;;10.32;73.54
37298;BME280;30517;51.932;4.278;2022-11-18T06:16:00;99784.63;;;10.26;73.13
37298;BME280;30517;51.932;4.278;2022-11-18T06:18:41;99769.91;;;10.15;72.81
37298;BME280;30517;51.932;4.278;2022-11-18T06:21:22;99809.09;;;10.37;73.27
37298;BME280;30517;51.932;4.278;2022-11-18T06:24:03;99783.78;;;10.25;73.02
37298;BME280;30517;51.932;4.278;2022-11-18T06:26:46;99788.31;;;10.17;73.70
37298;BME280;30517;51.932;4.278;2022-11-18T06:29:29;99813.63;;;10.26;73.46
37298;BME280;30517;51.932;4.278;2022-11-18T06:32:10;99821.63;;;10.21;73.68
37298;BME280;30517;51.932;4.278;2022-11-18T06:34:51;99814.72;;;10.12;74.01
37298;BME280;30517;51.932;4.278;2022-11-18T06:37:32;99812.03;;;10.17;73.76
37298;BME280;30517;51.932;4.278;2022-11-18T06:40:13;99819.81;;;10.25;73.50
37298;BME280;30517;51.932;4.278;2022-11-18T06:42:53;99812.00;;;10.18;73.64
37298;BME280;30517;51.932;4.278;2022-11-18T06:46:00;99840.78;;;10.32;73.69
37298;BME280;30517;51.932;4.278;2022-11-18T06:49:00;99834.72;;;10.26;72.87
37298;BME280;30517;51.932;4.278;2022-11-18T06:51:41;99842.63;;;10.27;73.32
37298;BME280;30517;51.932;4.278;2022-11-18T06:54:22;99859.31;;;10.26;73.39
37298;BME280;30517;51.932;4.278;2022-11-18T06:57:03;99860.19;;;10.28;73.18
37298;BME280;30517;51.932;4.278;2022-11-18T06:59:44;99863.78;;;10.21;73.39
37298;BME280;30517;51.932;4.278;2022-11-18T07:02:25;99876.84;;;10.32;73.08
37298;BME280;30517;51.932;4.278;2022-11-18T07:05:06;99849.91;;;10.10;73.60
37298;BME280;30517;51.932;4.278;2022-11-18T07:07:46;99886.59;;;10.24;73.44
37298;BME280;30517;51.932;4.278;2022-11-18T07:10:27;99867.41;;;10.14;73.82
37298;BME280;30517;51.932;4.278;2022-11-18T07:13:08;99881.34;;;10.24;73.55
37298;BME280;30517;51.932;4.278;2022-11-18T07:15:49;99879.56;;;10.24;73.72
37298;BME280;30517;51.932;4.278;2022-11-18T07:18:34;99892.78;;;10.21;73.41
37298;BME280;30517;51.932;4.278;2022-11-18T07:21:21;99877.91;;;10.18;73.18
37298;BME280;30517;51.932;4.278;2022-11-18T07:24:05;99870.13;;;10.09;73.60
37298;BME280;30517;51.932;4.278;2022-11-18T07:26:46;99900.63;;;10.24;73.50
37298;BME280;30517;51.932;4.278;2022-11-18T07:29:27;99904.63;;;9.94;74.07
37298;BME280;30517;51.932;4.278;2022-11-18T07:32:08;99891.16;;;10.12;73.50
37298;BME280;30517;51.932;4.278;2022-11-18T07:34:48;99889.41;;;10.13;73.27
37298;BME280;30517;51.932;4.278;2022-11-18T07:37:29;99914.16;;;10.03;73.79
37298;BME280;30517;51.932;4.278;2022-11-18T07:40:10;99912.09;;;10.22;73.09
37298;BME280;30517;51.932;4.278;2022-11-18T07:42:51;99922.69;;;10.18;73.27
37298;BME280;30517;51.932;4.278;2022-11-18T07:45:33;99891.31;;;10.03;73.21
37298;BME280;30517;51.932;4.278;2022-11-18T07:48:13;99915.72;;;10.14;73.24
37298;BME280;30517;51.932;4.278;2022-11-18T07:50:54;99927.13;;;10.15;73.37
37298;BME280;30517;51.932;4.278;2022-11-18T07:53:40;99923.50;;;10.20;72.95
37298;BME280;30517;51.932;4.278;2022-11-18T07:56:21;99937.69;;;10.13;73.44
37298;BME280;30517;51.932;4.278;2022-11-18T07:59:03;99934.09;;;10.19;73.50
37298;BME280;30517;51.932;4.278;2022-11-18T08:01:44;99925.50;;;10.06;73.24
37298;BME280;30517;51.932;4.278;2022-11-18T08:04:24;99971.00;;;10.17;73.36
37298;BME280;30517;51.932;4.278;2022-11-18T08:07:08;99952.66;;;10.11;73.42
37298;BME280;30517;51.932;4.278;2022-11-18T08:09:49;99971.03;;;10.16;73.37
37298;BME280;30517;51.932;4.278;2022-11-18T08:12:30;99921.44;;;9.84;73.59
37298;BME280;30517;51.932;4.278;2022-11-18T08:15:11;99931.81;;;9.94;73.27
37298;BME280;30517;51.932;4.278;2022-11-18T08:17:51;99899.63;;;9.75;73.14
37298;BME280;30517;51.932;4.278;2022-11-18T08:20:33;99989.50;;;10.16;73.36
37298;BME280;30517;51.932;4.278;2022-11-18T08:23:15;99991.25;;;10.15;73.48
37298;BME280;30517;51.932;4.278;2022-11-18T08:26:05;99984.13;;;10.20;73.03
37298;BME280;30517;51.932;4.278;2022-11-18T08:28:46;99979.00;;;10.13;73.18
37298;BME280;30517;51.932;4.278;2022-11-18T08:31:28;100001.66;;;10.28;73.01
37298;BME280;30517;51.932;4.278;2022-11-18T08:34:09;100004.28;;;10.28;72.85
37298;BME280;30517;51.932;4.278;2022-11-18T08:36:51;99985.16;;;10.12;73.29
37298;BME280;30517;51.932;4.278;2022-11-18T08:39:32;99996.69;;;10.05;73.76
37298;BME280;30517;51.932;4.278;2022-11-18T08:42:13;100014.03;;;10.19;73.22
37298;BME280;30517;51.932;4.278;2022-11-18T08:44:53;99996.59;;;10.09;73.55
37298;BME280;30517;51.932;4.278;2022-11-18T08:47:35;100028.13;;;10.18;73.57
37298;BME280;30517;51.932;4.278;2022-11-18T08:50:16;100021.03;;;10.22;73.09
37298;BME280;30517;51.932;4.278;2022-11-18T08:52:57;100028.00;;;10.28;73.38
37298;BME280;30517;51.932;4.278;2022-11-18T08:55:38;100015.84;;;10.14;73.28
37298;BME280;30517;51.932;4.278;2022-11-18T08:58:18;100036.03;;;10.17;73.62
37298;BME280;30517;51.932;4.278;2022-11-18T09:01:06;100013.25;;;10.11;73.21
37298;BME280;30517;51.932;4.278;2022-11-18T09:03:48;100028.88;;;10.28;73.11
37298;BME280;30517;51.932;4.278;2022-11-18T09:06:29;100028.00;;;10.28;73.17
37298;BME280;30517;51.932;4.278;2022-11-18T09:09:10;100021.88;;;10.27;72.91
37298;BME280;30517;51.932;4.278;2022-11-18T09:11:50;100033.19;;;10.34;73.00
37298;BME280;30517;51.932;4.278;2022-11-18T09:14:31;100028.88;;;10.28;72.92
37298;BME280;30517;51.932;4.278;2022-11-18T09:17:12;100022.63;;;10.34;72.47
37298;BME280;30517;51.932;4.278;2022-11-18T09:19:54;100001.81;;;10.15;72.89
37298;BME280;30517;51.932;4.278;2022-11-18T09:22:35;100043.81;;;10.28;73.24
37298;BME280;30517;51.932;4.278;2022-11-18T09:25:16;100036.72;;;10.33;72.80
37298;BME280;30517;51.932;4.278;2022-11-18T09:27:57;100039.31;;;10.36;73.02
37298;BME280;30517;51.932;4.278;2022-11-18T09:30:38;100040.22;;;10.35;73.23
37298;BME280;30517;51.932;4.278;2022-11-18T09:33:19;100034.16;;;10.27;72.91
37298;BME280;30517;51.932;4.278;2022-11-18T09:36:00;100049.03;;;10.31;73.39
37298;BME280;30517;51.932;4.278;2022-11-18T09:38:42;100046.44;;;10.29;73.08
37298;BME280;30517;51.932;4.278;2022-11-18T09:47:47;100043.88;;;10.20;73.03
37298;BME280;30517;51.932;4.278;2022-11-18T09:50:28;100064.75;;;10.38;72.90
37298;BME280;30517;51.932;4.278;2022-11-18T09:53:24;100080.56;;;10.40;72.81
37298;BME280;30517;51.932;4.278;2022-11-18T09:56:16;100082.28;;;10.43;72.67
37298;BME280;30517;51.932;4.278;2022-11-18T09:58:56;100087.63;;;10.36;72.83
37298;BME280;30517;51.932;4.278;2022-11-18T10:01:37;100026.63;;;9.99;73.13
37298;BME280;30517;51.932;4.278;2022-11-18T10:04:19;100091.16;;;10.37;73.01
37298;BME280;30517;51.932;4.278;2022-11-18T10:07:06;100081.53;;;10.31;72.67
37298;BME280;30517;51.932;4.278;2022-11-18T10:09:49;100098.03;;;10.47;72.56
37298;BME280;30517;51.932;4.278;2022-11-18T10:12:39;100099.94;;;10.36;72.95
37298;BME280;30517;51.932;4.278;2022-11-18T10:15:28;100114.75;;;10.48;72.65
37298;BME280;30517;51.932;4.278;2022-11-18T10:18:24;100106.06;;;10.38;73.20
37298;BME280;30517;51.932;4.278;2022-11-18T10:21:25;100069.22;;;10.33;72.69
37298;BME280;30517;51.932;4.278;2022-11-18T10:24:18;100116.41;;;10.53;72.54
37298;BME280;30517;51.932;4.278;2022-11-18T10:26:59;100091.28;;;10.23;73.40
37298;BME280;30517;51.932;4.278;2022-11-18T10:29:41;100101.66;;;10.38;72.62
37298;BME280;30517;51.932;4.278;2022-11-18T10:32:23;100119.00;;;10.56;72.34
37298;BME280;30517;51.932;4.278;2022-11-18T10:35:29;100110.38;;;10.45;72.49
37298;BME280;30517;51.932;4.278;2022-11-18T10:41:01;100107.91;;;10.33;72.73
37298;BME280;30517;51.932;4.278;2022-11-18T10:43:54;100129.56;;;10.56;72.40
37298;BME280;30517;51.932;4.278;2022-11-18T10:46:35;100124.34;;;10.52;72.53
37298;BME280;30517;51.932;4.278;2022-11-18T10:49:19;100133.88;;;10.60;72.34
37298;BME280;30517;51.932;4.278;2022-11-18T10:52:13;100112.13;;;10.45;72.25
37298;BME280;30517;51.932;4.278;2022-11-18T10:55:28;100122.53;;;10.55;72.30
37298;BME280;30517;51.932;4.278;2022-11-18T10:58:09;100116.34;;;10.58;72.41
37298;BME280;30517;51.932;4.278;2022-11-18T11:01:22;100138.28;;;10.61;72.39
37298;BME280;30517;51.932;4.278;2022-11-18T11:04:10;100139.00;;;10.71;72.00
37298;BME280;30517;51.932;4.278;2022-11-18T11:06:52;100138.28;;;10.61;72.45
37298;BME280;30517;51.932;4.278;2022-11-18T11:09:33;100127.75;;;10.58;72.18
37298;BME280;30517;51.932;4.278;2022-11-18T11:12:16;100141.78;;;10.60;72.26
37298;BME280;30517;51.932;4.278;2022-11-18T11:15:13;100126.19;;;10.45;72.54
37298;BME280;30517;51.932;4.278;2022-11-18T11:18:03;100147.03;;;10.63;72.35
37298;BME280;30517;51.932;4.278;2022-11-18T11:21:14;100131.38;;;10.50;72.57
37298;BME280;30517;51.932;4.278;2022-11-18T11:23:56;100155.78;;;10.66;72.35
37298;BME280;30517;51.932;4.278;2022-11-18T11:26:55;100149.78;;;10.56;73.13
37298;BME280;30517;51.932;4.278;2022-11-18T11:29:58;100150.56;;;10.61;72.42
37298;BME280;30517;51.932;4.278;2022-11-18T11:36:23;100161.88;;;10.69;72.51
37298;BME280;30517;51.932;4.278;2022-11-18T11:42:33;100169.94;;;10.61;72.55
37298;BME280;30517;51.932;4.278;2022-11-18T11:45:23;100162.91;;;10.60;72.91
37298;BME280;30517;51.932;4.278;2022-11-18T11:50:54;100159.38;;;10.61;72.33
37298;BME280;30517;51.932;4.278;2022-11-18T11:56:54;100116.56;;;10.41;72.53
37298;BME280;30517;51.932;4.278;2022-11-18T11:59:43;100179.53;;;10.67;72.64
37298;BME280;30517;51.932;4.278;2022-11-18T12:02:43;100169.03;;;10.64;72.43
37298;BME280;30517;51.932;4.278;2022-11-18T12:05:37;100181.25;;;10.68;72.18
37298;BME280;30517;51.932;4.278;2022-11-18T12:08:23;100183.84;;;10.73;72.26
37298;BME280;30517;51.932;4.278;2022-11-18T12:11:18;100173.34;;;10.70;72.15
37298;BME280;30517;51.932;4.278;2022-11-18T12:14:15;100169.06;;;10.59;72.78
37298;BME280;30517;51.932;4.278;2022-11-18T12:17:15;100197.03;;;10.73;72.74
37298;BME280;30517;51.932;4.278;2022-11-18T12:20:36;100172.44;;;10.72;72.76
37298;BME280;30517;51.932;4.278;2022-11-18T12:23:22;100180.16;;;10.86;72.04
37298;BME280;30517;51.932;4.278;2022-11-18T12:26:06;100191.75;;;10.73;72.89
37298;BME280;30517;51.932;4.278;2022-11-18T12:28:48;100186.50;;;10.71;73.07
37298;BME280;30517;51.932;4.278;2022-11-18T12:31:33;100193.53;;;10.71;73.03
37298;BME280;30517;51.932;4.278;2022-11-18T12:40:07;100170.91;;;10.54;74.89
37298;BME280;30517;51.932;4.278;2022-11-18T12:42:48;100175.31;;;10.54;74.97
37298;BME280;30517;51.932;4.278;2022-11-18T12:45:53;100199.69;;;10.71;74.78
37298;BME280;30517;51.932;4.278;2022-11-18T12:48:37;100109.81;;;10.18;74.59
37298;BME280;30517;51.932;4.278;2022-11-18T12:54:19;100197.03;;;10.73;74.80
37298;BME280;30517;51.932;4.278;2022-11-18T12:57:49;100220.69;;;10.79;74.69
37298;BME280;30517;51.932;4.278;2022-11-18T13:00:27;100213.72;;;10.75;74.79
37298;BME280;30517;51.932;4.278;2022-11-18T13:03:08;100170.81;;;10.60;74.33
37298;BME280;30517;51.932;4.278;2022-11-18T13:05:58;100194.31;;;10.77;74.46
37298;BME280;30517;51.932;4.278;2022-11-18T13:08:40;100224.97;;;10.88;74.17
37298;BME280;30517;51.932;4.278;2022-11-18T13:11:21;100230.31;;;10.83;74.48
37298;BME280;30517;51.932;4.278;2022-11-18T13:14:28;100238.16;;;10.89;73.87
37298;BME280;30517;51.932;4.278;2022-11-18T13:17:29;100228.50;;;10.87;73.96
37298;BME280;30517;51.932;4.278;2022-11-18T13:20:36;100239.06;;;10.85;74.67
37298;BME280;30517;51.932;4.278;2022-11-18T13:23:29;100226.84;;;10.79;74.35
37298;BME280;30517;51.932;4.278;2022-11-18T13:26:31;100210.28;;;10.70;74.62
37298;BME280;30517;51.932;4.278;2022-11-18T13:29:35;100236.47;;;10.82;74.54
37298;BME280;30517;51.932;4.278;2022-11-18T13:32:26;100179.66;;;10.55;74.24
37298;BME280;30517;51.932;4.278;2022-11-18T13:35:14;100232.06;;;10.84;74.82
37298;BME280;30517;51.932;4.278;2022-11-18T13:37:59;100211.88;;;10.80;73.85
37298;BME280;30517;51.932;4.278;2022-11-18T13:40:45;100219.91;;;10.72;74.71
37298;BME280;30517;51.932;4.278;2022-11-18T13:43:43;100222.50;;;10.74;74.13
37298;BME280;30517;51.932;4.278;2022-11-18T13:46:24;100014.09;;;9.42;73.79
37298;BME280;30517;51.932;4.278;2022-11-18T13:49:05;100166.84;;;10.23;74.71
37298;BME280;30517;51.932;4.278;2022-11-18T13:51:46;100223.63;;;10.56;74.61
37298;BME280;30517;51.932;4.278;2022-11-18T13:54:27;100247.13;;;10.74;74.48
37298;BME280;30517;51.932;4.278;2022-11-18T13:57:21;100234.97;;;10.62;74.82
37298;BME280;30517;51.932;4.278;2022-11-18T14:00:06;100194.88;;;10.33;74.43
37298;BME280;30517;51.932;4.278;2022-11-18T14:02:54;100265.63;;;10.71;74.55
37298;BME280;30517;51.932;4.278;2022-11-18T14:05:35;100234.13;;;10.59;74.94
37298;BME280;30517;51.932;4.278;2022-11-18T14:08:31;100251.59;;;10.68;74.16
37298;BME280;30517;51.932;4.278;2022-11-18T14:11:12;100240.19;;;10.66;74.53
37298;BME280;30517;51.932;4.278;2022-11-18T14:20:06;100277.81;;;10.83;74.19
37298;BME280;30517;51.932;4.278;2022-11-18T14:22:54;100262.94;;;10.76;74.29
37298;BME280;30517;51.932;4.278;2022-11-18T14:25:35;100252.53;;;10.65;73.71
37298;BME280;30517;51.932;4.278;2022-11-18T14:36:57;100286.69;;;10.74;74.77
37298;BME280;30517;51.932;4.278;2022-11-18T14:39:39;100289.28;;;10.80;75.05
37298;BME280;30517;51.932;4.278;2022-11-18T14:42:20;100310.38;;;10.80;75.09
37298;BME280;30517;51.932;4.278;2022-11-18T14:45:00;100312.13;;;10.81;74.91
37298;BME280;30517;51.932;4.278;2022-11-18T14:47:41;100316.47;;;10.82;75.19
37298;BME280;30517;51.932;4.278;2022-11-18T14:50:22;100278.00;;;10.68;74.74
37298;BME280;30517;51.932;4.278;2022-11-18T14:53:03;100311.19;;;10.85;74.90
37298;BME280;30517;51.932;4.278;2022-11-18T14:55:47;100309.47;;;10.83;74.82
37298;BME280;30517;51.932;4.278;2022-11-18T14:58:29;100304.19;;;10.80;75.16
37298;BME280;30517;51.932;4.278;2022-11-18T15:01:11;100279.84;;;10.59;74.86
37298;BME280;30517;51.932;4.278;2022-11-18T15:03:52;100325.31;;;10.80;74.87
37298;BME280;30517;51.932;4.278;2022-11-18T15:06:33;100317.34;;;10.86;75.09
37298;BME280;30517;51.932;4.278;2022-11-18T15:09:14;100255.44;;;10.40;75.15
37298;BME280;30517;51.932;4.278;2022-11-18T15:11:55;100325.25;;;10.86;75.13
37298;BME280;30517;51.932;4.278;2022-11-18T15:14:36;100324.41;;;10.85;74.68
37298;BME280;30517;51.932;4.278;2022-11-18T15:17:17;100324.41;;;10.82;74.97
37298;BME280;30517;51.932;4.278;2022-11-18T15:19:58;100315.75;;;10.73;75.26
37298;BME280;30517;51.932;4.278;2022-11-18T15:22:39;100286.03;;;10.55;75.14
37298;BME280;30517;51.932;4.278;2022-11-18T15:25:20;100306.97;;;10.72;74.76